Time;durP1;ratioP1;P1;durP2;ratioP2;P2;SDS_P1;SDS_P2;PMS_P1;PMS_P2;Temp;Humidity;BMP_temperature;BMP_pressure;BME280_temperature;BME280_humidity;BME280_pressure;Samples;Min_cycle;Max_cycle;Signal;HPM_P1;HPM_P2
2022/12/01 00:02:03;;;;;;;38.43;14.03;;;3.90;99.90;;;;;;4976435;28;20560;-79
2022/12/01 00:04:29;;;;;;;26.77;14.80;;;3.90;99.90;;;;;;4992768;28;20683;-78
2022/12/01 00:06:54;;;;;;;32.80;15.70;;;4.00;99.90;;;;;;5010638;28;20270;-79
2022/12/01 00:12:04;;;;;;;32.22;16.92;;;3.90;99.90;;;;;;4997151;28;20215;-79
2022/12/01 00:14:30;;;;;;;26.07;14.80;;;4.00;99.90;;;;;;4977044;28;20192;-78
2022/12/01 00:16:56;;;;;;;34.03;15.33;;;4.00;99.90;;;;;;5009257;28;20279;-77
2022/12/01 00:19:26;;;;;;;30.70;15.13;;;3.90;99.90;;;;;;5009140;28;20439;-78
2022/12/01 00:21:51;;;;;;;29.85;15.70;;;3.90;99.90;;;;;;5010459;28;20207;-79
2022/12/01 00:24:17;;;;;;;31.90;15.87;;;3.80;99.90;;;;;;4992757;28;20195;-77
2022/12/01 00:26:42;;;;;;;25.70;15.23;;;3.80;99.90;;;;;;5010371;28;20282;-78
2022/12/01 00:29:09;;;;;;;32.73;16.33;;;3.90;99.90;;;;;;5009133;28;20274;-79
2022/12/01 00:31:34;;;;;;;30.15;16.00;;;3.90;99.90;;;;;;5009168;28;20196;-79
2022/12/01 00:34:00;;;;;;;24.67;14.77;;;3.80;99.90;;;;;;4976529;28;20295;-79
2022/12/01 00:36:26;;;;;;;28.03;14.40;;;3.90;99.90;;;;;;5010436;28;20188;-79
2022/12/01 00:38:55;;;;;;;24.83;14.17;;;3.90;99.90;;;;;;5008829;28;20518;-80
2022/12/01 00:41:22;;;;;;;29.40;16.52;;;3.90;99.90;;;;;;4976113;28;20323;-79
2022/12/01 00:43:48;;;;;;;30.67;16.75;;;3.90;99.90;;;;;;5009742;28;20192;-79
2022/12/01 00:46:14;;;;;;;29.60;15.73;;;3.90;99.90;;;;;;5009807;28;20215;-79
2022/12/01 00:48:39;;;;;;;25.47;14.90;;;3.80;99.90;;;;;;5008333;28;20188;-79
2022/12/01 00:51:05;;;;;;;25.43;14.90;;;3.90;99.90;;;;;;5008297;28;21024;-79
2022/12/01 00:53:30;;;;;;;26.73;14.80;;;3.80;99.90;;;;;;5010193;28;20227;-79
2022/12/01 00:55:56;;;;;;;26.73;15.03;;;3.80;99.90;;;;;;5008204;28;20605;-78
2022/12/01 00:58:23;;;;;;;23.70;14.10;;;3.80;99.90;;;;;;5007832;28;20694;-80
2022/12/01 01:00:56;;;;;;;26.63;14.32;;;3.70;99.90;;;;;;5008047;28;20691;-79
2022/12/01 01:03:22;;;;;;;23.60;13.50;;;3.70;99.90;;;;;;5009341;28;20212;-79
2022/12/01 01:05:47;;;;;;;24.00;14.17;;;3.70;99.90;;;;;;5008043;28;20226;-79
2022/12/01 01:08:13;;;;;;;24.30;14.60;;;3.60;99.90;;;;;;5007903;28;20192;-79
2022/12/01 01:10:45;;;;;;;26.08;13.18;;;3.70;99.90;;;;;;5008252;28;20881;-79
2022/12/01 01:13:12;;;;;;;27.67;13.98;;;3.60;99.90;;;;;;5007992;28;20274;-78
2022/12/01 01:15:37;;;;;;;28.48;14.70;;;3.50;99.90;;;;;;5007980;28;20192;-78
2022/12/01 01:18:04;;;;;;;24.50;13.63;;;3.40;99.90;;;;;;4991418;28;20217;-78
2022/12/01 01:20:32;;;;;;;23.52;13.93;;;3.40;99.90;;;;;;5008871;28;20201;-77
2022/12/01 01:22:57;;;;;;;24.77;13.43;;;3.50;99.90;;;;;;5007522;28;20194;-77
2022/12/01 01:25:24;;;;;;;23.17;13.97;;;3.50;99.90;;;;;;5007507;28;20276;-77
2022/12/01 01:27:50;;;;;;;21.83;12.77;;;3.50;99.90;;;;;;5008925;28;20644;-78
2022/12/01 01:30:16;;;;;;;24.40;13.93;;;3.50;99.90;;;;;;5009081;28;20729;-78
2022/12/01 01:32:42;;;;;;;27.70;14.77;;;3.50;99.90;;;;;;5009002;28;20197;-78
2022/12/01 01:35:08;;;;;;;27.67;14.73;;;3.50;99.90;;;;;;5008950;28;20187;-80
2022/12/01 01:37:34;;;;;;;24.92;14.55;;;3.60;99.90;;;;;;5007400;28;20693;-79
2022/12/01 01:39:59;;;;;;;28.80;15.57;;;3.60;99.90;;;;;;5009134;28;20196;-78
2022/12/01 01:42:25;;;;;;;28.10;16.57;;;3.60;99.90;;;;;;5007231;28;20469;-79
2022/12/01 01:44:55;;;;;;;25.47;14.30;;;3.60;99.90;;;;;;5008689;28;20219;-78
2022/12/01 01:47:29;;;;;;;26.17;14.73;;;3.60;99.90;;;;;;4990935;28;20191;-78
2022/12/01 01:49:58;;;;;;;27.73;15.90;;;3.70;99.90;;;;;;5008660;28;20286;-78
2022/12/01 01:52:24;;;;;;;28.03;16.03;;;3.70;99.90;;;;;;5007374;28;20219;-79
2022/12/01 01:54:53;;;;;;;28.48;15.75;;;3.70;99.90;;;;;;5009123;28;20600;-78
2022/12/01 01:57:38;;;;;;;25.92;15.43;;;3.70;99.90;;;;;;5011576;28;20199;-79
2022/12/01 02:00:09;;;;;;;21.70;13.18;;;3.70;99.90;;;;;;4995437;28;20291;-79
2022/12/01 02:02:43;;;;;;;25.10;15.33;;;3.70;99.90;;;;;;5011882;28;20269;-78
2022/12/01 02:05:13;;;;;;;26.15;15.40;;;3.70;99.90;;;;;;5011438;28;20509;-78
2022/12/01 02:07:40;;;;;;;25.43;15.13;;;3.70;99.90;;;;;;4994865;28;20282;-78
2022/12/01 02:10:09;;;;;;;31.50;17.17;;;3.60;99.90;;;;;;5011120;28;20469;-78
2022/12/01 02:13:13;;;;;;;26.17;15.43;;;3.60;99.90;;;;;;4978534;28;20216;-79
2022/12/01 02:15:38;;;;;;;27.17;15.82;;;3.60;99.90;;;;;;4989315;28;20203;-79
2022/12/01 02:18:25;;;;;;;31.43;16.90;;;3.60;99.90;;;;;;5011019;28;20231;-79
2022/12/01 02:21:12;;;;;;;36.35;18.77;;;3.60;99.90;;;;;;5011264;28;20853;-79
2022/12/01 02:23:41;;;;;;;30.60;16.58;;;3.60;99.90;;;;;;5012455;28;20173;-79
2022/12/01 02:26:31;;;;;;;28.92;16.17;;;3.60;99.90;;;;;;5012439;28;20551;-79
2022/12/01 02:29:34;;;;;;;31.67;17.50;;;3.70;99.90;;;;;;5010433;28;20567;-78
2022/12/01 02:32:09;;;;;;;31.77;17.13;;;3.60;99.90;;;;;;5010724;28;20499;-79
2022/12/01 02:34:57;;;;;;;26.95;16.38;;;3.60;99.90;;;;;;5012016;28;20630;-78
2022/12/01 02:37:48;;;;;;;30.55;16.52;;;3.60;99.90;;;;;;5010708;28;20918;-78
2022/12/01 02:40:26;;;;;;;30.45;17.33;;;3.60;99.90;;;;;;5012228;28;20193;-80
2022/12/01 02:43:01;;;;;;;35.63;17.95;;;3.60;99.90;;;;;;5010477;28;20264;-79
2022/12/01 02:45:44;;;;;;;36.83;18.75;;;3.60;99.90;;;;;;5010274;28;20572;-79
2022/12/01 02:48:16;;;;;;;33.30;16.52;;;3.60;99.90;;;;;;5010807;28;20180;-80
2022/12/01 02:50:44;;;;;;;35.25;17.77;;;3.50;99.90;;;;;;5010394;28;20182;-79
2022/12/01 02:53:16;;;;;;;33.33;17.23;;;3.50;99.90;;;;;;5011869;28;20195;-83
2022/12/01 02:55:53;;;;;;;29.42;16.73;;;3.40;99.90;;;;;;5011607;28;20175;-79
2022/12/01 02:58:20;;;;;;;40.10;17.47;;;3.30;99.90;;;;;;5010367;28;20188;-78
2022/12/01 03:01:24;;;;;;;33.22;17.60;;;3.20;99.90;;;;;;4993824;28;20430;-79
2022/12/01 03:04:14;;;;;;;32.22;16.60;;;3.20;99.90;;;;;;5010308;28;20273;-79
2022/12/01 03:06:58;;;;;;;29.90;16.33;;;3.20;99.90;;;;;;5009724;28;20218;-80
2022/12/01 03:09:23;;;;;;;38.93;18.27;;;3.20;99.90;;;;;;5009953;28;20779;-80
2022/12/01 03:12:12;;;;;;;34.23;16.63;;;3.10;99.90;;;;;;5011474;28;20439;-80
2022/12/01 03:14:59;;;;;;;34.95;17.38;;;3.10;99.90;;;;;;5009964;28;20188;-81
2022/12/01 03:17:32;;;;;;;36.90;17.23;;;3.10;99.90;;;;;;5009547;28;20187;-79
2022/12/01 03:20:10;;;;;;;35.50;16.83;;;3.10;99.90;;;;;;5010910;28;20210;-80
2022/12/01 03:22:43;;;;;;;36.75;18.75;;;3.10;99.90;;;;;;5010777;28;20211;-80
2022/12/01 03:25:10;;;;;;;35.40;18.08;;;3.10;99.90;;;;;;5010879;28;20211;-80
2022/12/01 03:27:41;;;;;;;35.08;17.75;;;3.10;99.90;;;;;;5009506;28;20562;-80
2022/12/01 03:30:09;;;;;;;33.33;17.00;;;3.00;99.90;;;;;;5010916;28;20569;-80
2022/12/01 03:32:47;;;;;;;36.80;18.20;;;3.00;99.90;;;;;;4993339;28;20560;-80
2022/12/01 03:35:40;;;;;;;35.75;17.42;;;3.00;99.90;;;;;;5009326;28;20184;-80
2022/12/01 03:38:14;;;;;;;37.22;17.58;;;3.00;99.90;;;;;;5010570;28;20304;-80
2022/12/01 03:40:41;;;;;;;35.42;17.35;;;3.00;99.90;;;;;;5009745;28;20200;-80
2022/12/01 03:43:12;;;;;;;37.20;18.08;;;3.00;99.90;;;;;;5009499;28;20195;-80
2022/12/01 03:46:10;;;;;;;36.42;16.50;;;3.00;99.90;;;;;;5009349;28;20209;-80
2022/12/01 03:48:38;;;;;;;37.25;17.80;;;2.90;99.90;;;;;;5009489;28;20181;-81
2022/12/01 03:51:13;;;;;;;33.33;17.20;;;3.00;99.90;;;;;;4992871;28;20213;-80
2022/12/01 03:54:09;;;;;;;38.90;17.40;;;2.90;99.90;;;;;;5010005;28;20258;-79
2022/12/01 03:56:51;;;;;;;32.15;17.05;;;3.00;99.90;;;;;;5010180;28;20182;-78
2022/12/01 03:59:19;;;;;;;33.13;16.90;;;2.90;99.90;;;;;;4997215;28;20201;-78
2022/12/01 04:01:45;;;;;;;40.90;17.05;;;2.90;99.90;;;;;;5016013;28;20216;-78
2022/12/01 04:04:13;;;;;;;34.73;18.37;;;2.90;99.90;;;;;;5015030;28;20187;-79
2022/12/01 04:06:43;;;;;;;31.13;16.65;;;2.90;99.90;;;;;;5020376;28;20458;-80
2022/12/01 04:09:09;;;;;;;29.20;16.05;;;2.90;99.90;;;;;;5017412;28;20190;-78
2022/12/01 04:14:18;;;;;;;31.75;18.05;;;2.90;99.90;;;;;;5036149;28;20171;-83
2022/12/01 04:16:44;;;;;;;36.77;17.73;;;2.90;99.90;;;;;;5019737;28;20180;-82
2022/12/01 04:19:10;;;;;;;36.03;17.60;;;2.90;99.90;;;;;;5007414;28;20211;-78
2022/12/01 04:21:36;;;;;;;36.28;17.48;;;2.90;99.90;;;;;;5011129;28;20242;-77
2022/12/01 04:24:02;;;;;;;36.30;16.83;;;2.90;99.90;;;;;;5009912;28;20669;-79
2022/12/01 04:26:34;;;;;;;34.75;17.80;;;2.90;99.90;;;;;;5011029;28;20238;-78
2022/12/01 04:29:01;;;;;;;40.25;18.52;;;2.90;99.90;;;;;;5010992;28;20188;-80
2022/12/01 04:31:27;;;;;;;33.28;16.85;;;2.80;99.90;;;;;;4992637;28;20214;-78
2022/12/01 04:33:54;;;;;;;41.20;18.92;;;2.70;99.90;;;;;;5010190;28;20179;-78
2022/12/01 04:36:21;;;;;;;36.90;17.92;;;2.80;99.90;;;;;;4976250;28;20210;-78
2022/12/01 04:38:46;;;;;;;35.15;18.35;;;2.80;99.90;;;;;;5009986;28;20190;-78
2022/12/01 04:41:12;;;;;;;36.67;17.80;;;2.90;99.90;;;;;;5008712;28;20204;-78
2022/12/01 04:43:39;;;;;;;37.03;18.70;;;2.90;99.90;;;;;;4992307;28;20183;-77
2022/12/01 04:46:05;;;;;;;38.95;18.55;;;2.80;99.90;;;;;;5012391;28;20715;-77
2022/12/01 04:48:32;;;;;;;41.85;18.92;;;2.80;99.90;;;;;;5008919;28;20714;-79
2022/12/01 04:50:58;;;;;;;36.33;18.38;;;2.90;99.90;;;;;;5008737;28;20214;-78
2022/12/01 04:53:24;;;;;;;40.30;18.93;;;2.80;99.90;;;;;;5008280;28;20196;-80
2022/12/01 04:55:49;;;;;;;37.83;20.10;;;2.90;99.90;;;;;;5008773;28;20260;-80
2022/12/01 04:58:15;;;;;;;41.63;18.27;;;2.80;99.90;;;;;;5008466;28;20194;-79
2022/12/01 05:00:41;;;;;;;43.70;18.97;;;2.80;99.90;;;;;;5008389;28;20195;-78
2022/12/01 05:03:06;;;;;;;40.53;19.17;;;2.90;99.90;;;;;;5009482;28;20290;-83
2022/12/01 05:05:32;;;;;;;39.50;19.90;;;2.90;99.90;;;;;;4977873;28;20594;-82
2022/12/01 05:07:58;;;;;;;42.57;18.20;;;2.90;99.90;;;;;;5009716;28;20426;-83
2022/12/01 05:10:24;;;;;;;37.33;18.70;;;2.90;99.90;;;;;;4993721;28;20312;-84
2022/12/01 05:12:50;;;;;;;43.50;20.77;;;3.10;99.90;;;;;;5009764;28;20523;-82
2022/12/01 05:15:16;;;;;;;41.43;19.40;;;2.90;99.90;;;;;;5010085;28;20790;-82
2022/12/01 05:17:41;;;;;;;37.63;18.60;;;3.00;99.90;;;;;;5009404;28;20454;-82
2022/12/01 05:22:57;;;;;;;40.08;19.10;;;3.00;99.90;;;;;;5008789;28;20258;-81
2022/12/01 05:25:23;;;;;;;37.22;18.48;;;3.00;99.90;;;;;;4991217;28;20316;-81
2022/12/01 05:27:49;;;;;;;41.43;18.83;;;3.00;99.90;;;;;;4975513;28;20322;-81
2022/12/01 05:30:14;;;;;;;45.70;20.00;;;3.10;99.90;;;;;;4994461;28;20197;-81
2022/12/01 05:32:40;;;;;;;44.30;20.73;;;3.00;99.90;;;;;;5011257;28;20203;-82
2022/12/01 05:35:06;;;;;;;42.00;19.60;;;3.00;99.90;;;;;;4980183;28;20200;-81
2022/12/01 05:37:33;;;;;;;41.17;18.37;;;3.00;99.90;;;;;;4995406;28;20220;-82
2022/12/01 05:39:59;;;;;;;48.17;20.17;;;3.00;99.90;;;;;;4980146;28;20521;-83
2022/12/01 05:42:25;;;;;;;38.55;19.42;;;2.90;99.90;;;;;;4996374;28;20446;-81
2022/12/01 05:44:51;;;;;;;38.90;18.43;;;2.90;99.90;;;;;;5012532;28;20272;-82
2022/12/01 05:47:16;;;;;;;39.30;20.47;;;3.00;99.90;;;;;;4979265;28;20191;-82
2022/12/01 05:49:45;;;;;;;40.17;19.77;;;2.90;99.90;;;;;;4995735;28;20690;-81
2022/12/01 05:52:10;;;;;;;44.53;18.35;;;2.90;99.90;;;;;;5010727;28;20198;-81
2022/12/01 05:54:36;;;;;;;38.47;19.60;;;2.80;99.90;;;;;;5011774;28;20260;-82
2022/12/01 05:57:02;;;;;;;43.53;19.30;;;2.80;99.90;;;;;;4995144;28;20188;-82
2022/12/01 05:59:27;;;;;;;38.27;19.70;;;2.80;99.90;;;;;;5011032;28;20621;-81
2022/12/01 06:01:53;;;;;;;37.40;18.00;;;2.80;99.90;;;;;;5012972;28;20688;-82
2022/12/01 06:04:19;;;;;;;40.27;18.80;;;2.80;99.90;;;;;;4980359;28;20191;-82
2022/12/01 06:06:45;;;;;;;42.70;18.43;;;2.90;99.90;;;;;;4996581;28;20203;-82
2022/12/01 06:09:10;;;;;;;43.43;20.43;;;2.80;99.90;;;;;;4998837;28;20253;-83
2022/12/01 06:11:36;;;;;;;42.43;19.27;;;2.80;99.90;;;;;;4996965;28;20210;-81
2022/12/01 06:14:01;;;;;;;35.77;19.60;;;2.80;99.90;;;;;;4977977;28;20195;-82
2022/12/01 06:16:27;;;;;;;39.17;18.80;;;2.80;99.90;;;;;;4980326;28;20281;-82
2022/12/01 06:18:52;;;;;;;35.60;17.50;;;2.80;99.90;;;;;;4995789;28;20261;-81
2022/12/01 06:21:18;;;;;;;33.00;19.17;;;2.90;99.90;;;;;;4994990;28;20214;-82
2022/12/01 06:23:44;;;;;;;39.30;18.20;;;2.80;99.90;;;;;;4993649;28;20645;-82
2022/12/01 06:26:09;;;;;;;38.67;19.93;;;2.80;99.90;;;;;;5010247;28;20226;-82
2022/12/01 06:28:35;;;;;;;41.30;20.30;;;2.80;99.90;;;;;;4993730;28;20195;-81
2022/12/01 06:31:00;;;;;;;34.93;19.37;;;2.70;99.90;;;;;;5009896;28;20203;-82
2022/12/01 06:33:26;;;;;;;31.80;16.60;;;2.70;99.90;;;;;;5010144;28;20214;-85
2022/12/01 06:36:02;;;;;;;34.90;17.93;;;2.80;99.90;;;;;;4979700;28;20280;-81
2022/12/01 06:38:35;;;;;;;43.45;20.25;;;2.80;99.90;;;;;;4978580;28;20684;-82
2022/12/01 06:41:02;;;;;;;41.78;19.38;;;2.70;99.90;;;;;;4993565;28;20273;-82
2022/12/01 06:43:28;;;;;;;38.95;18.98;;;2.90;99.90;;;;;;5012852;28;20218;-83
2022/12/01 06:45:54;;;;;;;51.13;21.77;;;2.70;99.90;;;;;;5019835;28;20285;-82
2022/12/01 06:48:20;;;;;;;44.45;20.30;;;2.80;99.90;;;;;;4999171;28;20182;-82
2022/12/01 06:50:46;;;;;;;41.97;20.80;;;2.80;99.90;;;;;;4980716;28;20195;-82
2022/12/01 06:53:11;;;;;;;42.10;20.30;;;2.80;99.90;;;;;;5001827;28;20265;-82
2022/12/01 06:55:38;;;;;;;41.93;21.10;;;2.80;99.90;;;;;;4996834;28;20198;-82
2022/12/01 06:58:04;;;;;;;45.65;21.85;;;2.80;99.90;;;;;;4984480;28;20189;-83
2022/12/01 07:00:30;;;;;;;51.22;21.55;;;2.80;99.90;;;;;;5017758;28;20190;-83
2022/12/01 07:02:56;;;;;;;45.50;20.00;;;2.80;99.90;;;;;;5017510;28;20211;-82
2022/12/01 07:05:21;;;;;;;42.40;20.10;;;2.80;99.90;;;;;;5004399;28;20224;-82
2022/12/01 07:07:47;;;;;;;43.10;21.80;;;2.80;99.90;;;;;;5000589;28;20191;-82
2022/12/01 07:10:13;;;;;;;43.70;20.87;;;2.80;99.90;;;;;;5015199;28;20185;-82
2022/12/01 07:12:39;;;;;;;42.73;20.50;;;2.80;99.90;;;;;;5018164;28;20266;-83
2022/12/01 07:15:07;;;;;;;45.00;22.33;;;2.90;99.90;;;;;;5015819;28;20752;-82
2022/12/01 07:17:34;;;;;;;42.92;20.85;;;2.80;99.90;;;;;;5012147;28;20212;-82
2022/12/01 07:19:59;;;;;;;47.00;23.35;;;2.80;99.90;;;;;;5012116;28;20182;-82
2022/12/01 07:22:26;;;;;;;49.90;22.30;;;2.80;99.90;;;;;;4980107;28;20215;-82
2022/12/01 07:24:52;;;;;;;48.38;22.38;;;2.80;99.90;;;;;;5013543;28;20222;-81
2022/12/01 07:27:17;;;;;;;54.53;24.93;;;3.00;99.90;;;;;;5010621;28;20195;-82
2022/12/01 07:29:43;;;;;;;46.93;21.03;;;2.80;99.90;;;;;;5011865;28;20207;-82
2022/12/01 07:32:09;;;;;;;38.37;19.60;;;2.80;99.90;;;;;;4994786;28;20203;-82
2022/12/01 07:34:34;;;;;;;41.97;20.90;;;2.90;99.90;;;;;;5010475;28;20203;-82
2022/12/01 07:37:00;;;;;;;45.20;22.43;;;2.90;99.90;;;;;;5010126;28;20274;-81
2022/12/01 07:39:25;;;;;;;43.93;20.93;;;2.90;99.90;;;;;;4981434;28;20262;-82
2022/12/01 07:41:51;;;;;;;38.20;20.50;;;3.00;99.90;;;;;;4998033;28;20213;-82
2022/12/01 07:44:17;;;;;;;49.70;22.27;;;3.00;99.90;;;;;;4979263;28;20215;-82
2022/12/01 07:46:42;;;;;;;46.27;21.70;;;2.90;99.90;;;;;;5015397;28;20298;-82
2022/12/01 07:49:10;;;;;;;44.13;21.47;;;3.00;99.90;;;;;;4982644;28;20200;-83
2022/12/01 07:51:36;;;;;;;46.78;20.75;;;3.00;99.90;;;;;;4996097;28;20727;-82
2022/12/01 07:54:03;;;;;;;49.27;21.97;;;3.10;99.90;;;;;;4997661;28;20191;-82
2022/12/01 07:56:30;;;;;;;47.13;21.10;;;3.00;99.90;;;;;;4979797;28;20185;-82
2022/12/01 07:58:55;;;;;;;47.47;22.55;;;3.00;99.90;;;;;;4996076;28;20202;-82
2022/12/01 08:01:23;;;;;;;39.53;19.10;;;3.10;99.90;;;;;;5012268;28;20738;-82
2022/12/01 08:03:50;;;;;;;42.53;21.80;;;3.00;99.90;;;;;;4996376;28;20222;-82
2022/12/01 08:06:17;;;;;;;40.30;19.65;;;3.00;99.90;;;;;;5013716;28;20211;-82
2022/12/01 08:08:43;;;;;;;48.08;21.75;;;3.10;99.90;;;;;;4999248;28;20183;-82
2022/12/01 08:11:13;;;;;;;49.17;22.57;;;3.10;99.90;;;;;;5001422;28;20764;-84
2022/12/01 08:13:40;;;;;;;42.50;21.00;;;3.20;99.90;;;;;;5015040;28;20185;-82
2022/12/01 08:16:07;;;;;;;46.80;23.20;;;2.90;99.90;;;;;;4997104;28;20200;-82
2022/12/01 08:18:38;;;;;;;42.80;20.63;;;3.00;99.90;;;;;;5017464;28;20198;-82
2022/12/01 08:21:05;;;;;;;43.63;20.75;;;3.00;99.90;;;;;;4998309;28;20209;-82
2022/12/01 08:23:31;;;;;;;44.40;22.10;;;3.00;99.90;;;;;;5014354;28;20567;-83
2022/12/01 08:26:14;;;;;;;42.33;21.30;;;3.00;99.90;;;;;;4982939;28;20230;-81
2022/12/01 08:28:41;;;;;;;47.47;23.48;;;3.00;99.90;;;;;;4994969;28;21005;-83
2022/12/01 08:31:21;;;;;;;47.80;20.85;;;3.00;99.90;;;;;;5014539;28;20202;-82
2022/12/01 08:33:48;;;;;;;46.42;22.75;;;3.00;99.90;;;;;;5011042;28;20867;-82
2022/12/01 08:36:14;;;;;;;48.30;22.80;;;3.10;99.90;;;;;;5011791;28;20209;-82
2022/12/01 08:38:43;;;;;;;46.33;22.98;;;3.10;99.90;;;;;;4978231;28;20393;-82
2022/12/01 08:41:09;;;;;;;50.70;21.83;;;3.20;99.90;;;;;;4978393;28;20218;-82
2022/12/01 08:43:43;;;;;;;44.07;20.73;;;3.20;99.90;;;;;;5011563;28;20190;-82
2022/12/01 08:46:10;;;;;;;46.28;22.40;;;3.20;99.90;;;;;;4996023;28;20468;-82
2022/12/01 08:48:36;;;;;;;46.50;21.50;;;3.20;99.90;;;;;;5013221;28;20178;-83
2022/12/01 08:51:13;;;;;;;46.83;21.88;;;3.30;99.90;;;;;;4995943;28;20205;-82
2022/12/01 08:53:43;;;;;;;44.15;21.85;;;3.20;99.90;;;;;;5014498;28;20236;-82
2022/12/01 08:56:42;;;;;;;46.55;23.65;;;3.30;99.90;;;;;;5016883;28;20229;-82
2022/12/01 08:59:08;;;;;;;40.15;21.27;;;3.30;99.90;;;;;;4984628;28;20226;-82
2022/12/01 09:01:34;;;;;;;40.50;19.90;;;3.30;99.90;;;;;;5015003;28;20563;-82
2022/12/01 09:04:04;;;;;;;42.25;20.45;;;3.40;99.90;;;;;;5014403;28;20429;-82
2022/12/01 09:06:41;;;;;;;48.72;21.90;;;3.40;99.90;;;;;;5013170;28;20692;-82
2022/12/01 09:09:09;;;;;;;45.42;20.42;;;3.40;99.90;;;;;;4997114;28;20267;-82
2022/12/01 09:11:35;;;;;;;44.28;22.48;;;3.30;99.90;;;;;;5014234;28;20206;-82
2022/12/01 09:14:01;;;;;;;42.00;21.10;;;3.30;99.90;;;;;;5013735;28;20285;-82
2022/12/01 09:16:26;;;;;;;46.70;21.87;;;3.20;99.90;;;;;;4995238;28;20527;-82
2022/12/01 09:18:52;;;;;;;50.93;23.20;;;3.30;99.90;;;;;;4995482;28;20672;-82
2022/12/01 09:21:24;;;;;;;46.20;21.80;;;3.30;99.90;;;;;;5014845;28;20207;-83
2022/12/01 09:23:50;;;;;;;45.33;23.38;;;3.40;99.90;;;;;;4994697;28;20192;-82
2022/12/01 09:26:18;;;;;;;41.90;20.93;;;3.40;99.90;;;;;;5011672;28;20230;-82
2022/12/01 09:28:49;;;;;;;47.90;22.20;;;3.40;99.90;;;;;;5011745;28;20203;-82
2022/12/01 09:31:17;;;;;;;48.25;21.63;;;3.40;99.90;;;;;;5009743;28;20575;-82
2022/12/01 09:33:43;;;;;;;48.03;21.98;;;3.30;99.90;;;;;;5011225;28;20183;-82
2022/12/01 09:36:10;;;;;;;48.08;21.42;;;3.40;99.90;;;;;;5011955;28;20215;-82
2022/12/01 09:38:37;;;;;;;50.75;23.58;;;3.40;99.90;;;;;;5000257;28;20202;-82
2022/12/01 09:41:18;;;;;;;43.65;20.92;;;3.40;99.90;;;;;;5016549;28;20235;-82
2022/12/01 09:44:04;;;;;;;51.90;21.98;;;3.40;99.90;;;;;;4999024;28;20999;-82
2022/12/01 09:46:40;;;;;;;44.67;21.98;;;3.40;99.90;;;;;;5013206;28;20218;-82
2022/12/01 09:49:11;;;;;;;45.80;22.63;;;3.40;99.90;;;;;;5014639;28;20186;-81
2022/12/01 09:51:37;;;;;;;46.42;21.85;;;3.40;99.90;;;;;;4996581;28;20220;-82
2022/12/01 09:54:02;;;;;;;56.03;25.53;;;3.40;99.90;;;;;;4980974;28;20195;-81
2022/12/01 09:56:45;;;;;;;50.27;23.37;;;3.40;99.90;;;;;;5012338;28;20275;-81
2022/12/01 09:59:24;;;;;;;49.10;21.85;;;3.50;99.90;;;;;;5010471;28;20447;-81
2022/12/01 10:01:58;;;;;;;43.95;21.42;;;3.50;99.90;;;;;;4993501;28;21048;-82
2022/12/01 10:04:45;;;;;;;46.20;22.40;;;3.50;99.90;;;;;;4993801;28;20202;-81
2022/12/01 10:07:29;;;;;;;59.28;23.73;;;3.50;99.90;;;;;;5008709;28;20191;-82
2022/12/01 10:10:02;;;;;;;52.45;22.35;;;3.40;99.90;;;;;;5008569;28;20178;-81
2022/12/01 10:12:33;;;;;;;45.72;22.42;;;3.50;99.90;;;;;;5008510;28;20200;-82
2022/12/01 10:15:26;;;;;;;44.38;20.52;;;3.40;99.90;;;;;;5007602;28;20575;-81
2022/12/01 10:18:09;;;;;;;45.10;22.48;;;3.40;99.90;;;;;;5010448;28;20206;-81
2022/12/01 10:20:58;;;;;;;49.45;22.33;;;3.50;99.90;;;;;;5010930;28;20195;-82
2022/12/01 10:23:32;;;;;;;50.78;21.30;;;3.50;99.90;;;;;;4981927;28;20198;-81
2022/12/01 10:26:14;;;;;;;49.67;23.05;;;3.40;99.90;;;;;;5012183;28;20199;-81
2022/12/01 10:28:44;;;;;;;49.70;22.10;;;3.40;99.90;;;;;;5011623;28;20186;-82
2022/12/01 10:31:46;;;;;;;51.28;22.98;;;3.50;99.90;;;;;;5011429;28;20450;-81
2022/12/01 10:34:16;;;;;;;47.92;22.33;;;3.40;99.90;;;;;;5014428;28;20212;-81
2022/12/01 10:36:42;;;;;;;42.88;20.70;;;3.20;99.90;;;;;;4996227;28;20659;-81
2022/12/01 10:39:16;;;;;;;46.07;23.97;;;3.40;99.90;;;;;;5010687;28;20191;-81
2022/12/01 10:41:42;;;;;;;48.88;23.05;;;3.60;99.90;;;;;;5010418;28;20634;-81
2022/12/01 10:44:08;;;;;;;46.13;21.85;;;3.50;99.90;;;;;;4995085;28;20558;-81
2022/12/01 10:46:46;;;;;;;44.07;21.80;;;3.50;99.90;;;;;;5011833;28;20212;-81
2022/12/01 10:49:14;;;;;;;46.45;23.02;;;3.60;99.90;;;;;;5009981;28;20438;-81
2022/12/01 10:51:52;;;;;;;50.40;23.70;;;3.50;99.90;;;;;;5010192;28;20211;-81
2022/12/01 10:54:18;;;;;;;44.92;21.67;;;3.50;99.90;;;;;;5011198;28;20180;-81
2022/12/01 10:56:47;;;;;;;50.47;23.45;;;3.60;99.90;;;;;;4994676;28;20196;-81
2022/12/01 10:59:34;;;;;;;57.20;21.92;;;3.60;99.90;;;;;;5009932;28;20184;-81
2022/12/01 11:02:01;;;;;;;46.78;23.33;;;3.60;99.90;;;;;;5010430;28;20215;-81
2022/12/01 11:04:49;;;;;;;50.17;22.27;;;3.50;99.90;;;;;;4994025;28;20661;-82
2022/12/01 11:07:25;;;;;;;46.30;21.87;;;3.60;99.90;;;;;;4994836;28;20199;-82
2022/12/01 11:10:25;;;;;;;56.65;24.35;;;3.60;99.90;;;;;;5015287;28;20439;-82
2022/12/01 11:13:14;;;;;;;48.95;23.25;;;3.60;99.90;;;;;;5012483;28;20235;-82
2022/12/01 11:15:52;;;;;;;44.60;21.95;;;3.40;99.90;;;;;;4998631;28;20250;-82
2022/12/01 11:18:34;;;;;;;50.50;24.03;;;3.50;99.90;;;;;;5014454;28;20216;-82
2022/12/01 11:21:26;;;;;;;45.75;22.80;;;3.60;99.90;;;;;;5014218;28;20458;-85
2022/12/01 11:23:54;;;;;;;48.00;23.50;;;3.50;99.90;;;;;;5014982;28;20236;-82
2022/12/01 11:26:24;;;;;;;55.92;25.10;;;3.60;99.90;;;;;;5010843;28;20235;-81
2022/12/01 11:28:52;;;;;;;49.93;23.63;;;3.60;99.90;;;;;;5014142;28;20322;-82
2022/12/01 11:31:19;;;;;;;43.55;23.17;;;3.60;99.90;;;;;;5015014;28;20461;-82
2022/12/01 11:33:47;;;;;;;44.42;22.65;;;3.60;99.90;;;;;;4998195;28;20203;-82
2022/12/01 11:36:30;;;;;;;52.47;24.93;;;3.60;99.90;;;;;;5013622;28;20187;-81
2022/12/01 11:38:59;;;;;;;50.08;23.27;;;3.60;99.90;;;;;;5011832;28;20466;-81
2022/12/01 11:41:33;;;;;;;57.00;24.75;;;3.60;99.90;;;;;;4998899;28;20216;-81
2022/12/01 11:44:01;;;;;;;45.83;22.37;;;3.70;99.90;;;;;;4995980;28;20197;-81
2022/12/01 11:46:34;;;;;;;44.43;23.70;;;3.70;99.90;;;;;;5010516;28;20493;-82
2022/12/01 11:49:00;;;;;;;46.92;22.17;;;3.70;99.90;;;;;;5010294;28;20441;-81
2022/12/01 11:51:36;;;;;;;45.03;22.17;;;3.80;99.90;;;;;;4994937;28;20218;-81
2022/12/01 11:54:22;;;;;;;47.57;22.97;;;3.70;99.90;;;;;;5010640;28;20858;-81
2022/12/01 11:56:49;;;;;;;47.30;23.23;;;3.70;99.90;;;;;;5011764;28;21089;-82
2022/12/01 11:59:26;;;;;;;43.60;23.77;;;3.70;99.90;;;;;;5011300;28;20205;-81
2022/12/01 12:02:10;;;;;;;48.13;25.90;;;3.70;99.90;;;;;;4994075;28;20449;-82
2022/12/01 12:05:03;;;;;;;46.77;22.93;;;3.70;99.90;;;;;;5010769;28;20227;-82
2022/12/01 12:07:44;;;;;;;45.03;22.90;;;3.80;99.90;;;;;;5011121;28;20430;-82
2022/12/01 12:10:34;;;;;;;45.42;22.42;;;3.70;99.90;;;;;;5014101;28;20236;-81
2022/12/01 12:13:15;;;;;;;46.92;22.17;;;3.70;99.90;;;;;;5012422;28;20230;-81
2022/12/01 12:16:05;;;;;;;48.22;21.48;;;3.60;99.90;;;;;;5011766;28;20207;-82
2022/12/01 12:18:43;;;;;;;44.92;23.45;;;3.70;99.90;;;;;;5011549;28;20282;-81
2022/12/01 12:21:17;;;;;;;42.75;22.42;;;3.70;99.90;;;;;;5011463;28;20200;-82
2022/12/01 12:24:04;;;;;;;47.45;24.17;;;3.70;99.90;;;;;;5009982;28;20191;-82
2022/12/01 12:26:53;;;;;;;49.33;23.07;;;3.70;99.90;;;;;;5009051;28;20222;-82
2022/12/01 12:29:47;;;;;;;41.27;21.37;;;3.70;99.90;;;;;;5008621;28;20424;-82
2022/12/01 12:32:27;;;;;;;49.13;23.67;;;3.70;99.90;;;;;;5010650;28;20432;-82
2022/12/01 12:35:36;;;;;;;44.50;22.47;;;3.80;99.90;;;;;;5012428;28;20773;-82
2022/12/01 12:38:01;;;;;;;54.22;24.33;;;3.80;99.90;;;;;;5009263;28;20411;-82
2022/12/01 12:40:39;;;;;;;43.23;21.90;;;3.90;99.90;;;;;;5009796;28;20179;-82
2022/12/01 12:43:29;;;;;;;43.28;23.77;;;4.00;99.90;;;;;;5013367;28;20263;-81
2022/12/01 12:46:26;;;;;;;49.57;23.77;;;3.80;99.90;;;;;;4993724;28;20221;-82
2022/12/01 12:48:55;;;;;;;47.00;24.80;;;3.80;99.90;;;;;;4996754;28;20434;-82
2022/12/01 12:51:32;;;;;;;49.03;25.10;;;3.80;99.90;;;;;;5011029;28;20212;-82
2022/12/01 12:54:04;;;;;;;47.38;25.00;;;3.80;99.90;;;;;;5008299;28;20186;-82
2022/12/01 12:56:32;;;;;;;51.83;23.80;;;3.90;99.90;;;;;;5009401;28;20188;-82
2022/12/01 12:59:10;;;;;;;47.10;24.73;;;3.90;99.90;;;;;;5008943;28;20505;-82
2022/12/01 13:01:40;;;;;;;42.58;23.60;;;4.10;99.90;;;;;;5010604;28;20603;-81
2022/12/01 13:04:14;;;;;;;48.07;24.97;;;3.80;99.90;;;;;;5010320;28;20205;-82
2022/12/01 13:07:19;;;;;;;46.50;24.40;;;3.80;99.90;;;;;;5010588;28;20990;-82